Baton Rouge Metropolitan Airport Baton Rouge US
ICAO: KBTR
IATA: BTR
Category: Large
Scheduled Services: Yes

Elevation: 70 ft
TransAlt. 18000 ft.

Airport Communications:
APP/DEP:120.3
ATIS:125.2
CLNC DEL:119.4
CTAF:118.45
GND:121.9
DE RIDDER RDO:122.2
TWR:118.45
UNICOM:122.95

KBTR Zoom In..

Runways:

(A) RW 04L length 7500 ft width 150 ft
---- / hdg 40

(B) RW 04R length 3799 ft width 75 ft
---- / hdg 40

(C) RW 13 length 7004 ft width 150 ft
ILS 110.30 / hdg 130

(D) RW 22L length 3799 ft width 75 ft
---- / hdg 220

(E) RW 22R length 7500 ft width 150 ft
ILS 108.70 / hdg 220

(F) RW 31 length 7004 ft width 150 ft
---- / hdg 310

Location; KBTR
Day. 24 / Time. 07.57 Zulu
* Altimeter: 30.07
* Temperature: 22° c. 71.6°f.
* Wind from: 330° Speed 07 kn.
Dewpoint: 21° c.
Visibility: 4 Statute Miles.
Clouds: Broken 900 ft.
Clouds: Broken 2400 ft.
Clouds: Overcast 2900 ft.
Conditions: Mist.

KBTR 240757Z AUTO 33007KT 4SM TSRA BR BKN009 BKN024 OVC029 22/21 A3007 RMK AO2 LTG DSNT N-E TSB56 CIG 008V012 P0004 T02220206


Wind From 330°
Speed 07 kn.

 
 
jpsmedia.com for Web Design SOUNDCLOUD worldairports.se 2018   terms of use